Chazy, NY (12921)

6:12 AM EST on December 19, 2014 (GMT -0500)
Hidden View Farms | Change Station
CLOSE
Current Station
Personal Weather Station
Location: Champlain, NY
Elevation: 194 ft
Nearby Weather Stations

Elev 194 ft 44.99 °N, 73.49 °W | Updated 14 minutes ago

Overcast
Overcast
24.4 °F
Feels Like 12 °F
N
14.0
Wind Variable Wind from WNW
Gusts 16.0 mph

Today
High -- | Low -- °F
--% Chance of Precip.
Yesterday
High -- | Low -- °F
Precip. -- in
7:27 AM 4:14 PM
Waning Crescent, 8% visible
Pressure 30.01 in
Visibility 10.0 miles
Clouds Overcast 2100 ft
Windchill 12 °F
Dew Point 21 °F
Humidity 88%
Rainfall 0.00 in
Snow Depth Not available.
UV 0 out of 12
Pollen .10 out of 12
Air Quality Not available.
Flu Activity Not available.
METAR KPBG 191053Z AUTO 33009KT 10SM OVC021 M03/M07 A3000 RMK AO2 SLP161 T10331067

More Conditions Fewer Conditions

Pressure 30.01 in
Visibility 10.0 miles
Clouds Overcast 2100 ft
Windchill 12 °F
Dew Point 21 °F
Humidity 88%
Rainfall 0.00 in
Snow Depth Not available.
UV 0 out of 12
Pollen .10 out of 12
Air Quality Not available.
Flu Activity Not available.
METAR KPBG 191053Z AUTO 33009KT 10SM OVC021 M03/M07 A3000 RMK AO2 SLP161 T10331067

More Conditions Fewer Conditions

10-Day Weather Forecast

Almanac

Astronomy

Dec. 19, 2014 Rise Set
Actual Time
Civil Twilight
Nautical Twilight
Astronomical Twilight
Moon
Length of Visible Light
Length of Day
Tomorrow will be .
, % of the Moon is Illuminated

Today's Extremes

State Highs State Lows

Community

WunderPhotos

Upload Photos

1,778,965 photos uploaded!

WunderBlogs® & News

Nearby

Air Quality

  Air Quality AQ Index Pollutant
Not available.

Snow Depth

Station Depth Elevation

Earthquake Activity

City Distance Mag. Time & Date
Minimum magnitude displayed is 2.5.

Coastal Water Temperatures

Place Temperature

Nearby Weather Stations